• Join FlightAware (Why Join?)
  • Login
  • US Flag 
03:00AM EDT


 

Airport Tracker/Info


-or-


 

Live Flight TrackerFlight Track Log ✈ CTL312 ✈ 12-Jul-2013 ✈ KBKL - KMBS

Flight Track Log - Related Links

Times and Time Zones

All times are in EDT time to prevent confusion due to time zone crossing. See the CTL312 flight status page for this flight to view local times or setup timezone preferences in your user account.

Time Position Orientation Groundspeed Altitude Reporting Facility
EDT Latitude Longitude Course Direction KTS MPH feet Rate Location/Type
06:53PM 41.5358 -81.6761 349° North 134 154 1,300  Level Cleveland Center
06:54PM 41.5586 -81.6819 349° North 131 151 1,700 660 Climbing Cleveland Center
06:55PM 41.5917 -81.7075 330° Northwest 162 186 2,400 660 Climbing Cleveland Center
06:56PM 41.6289 -81.7528 318° Northwest 163 188 3,100 600 Climbing Cleveland Center
06:58PM 41.6719 -81.8008 320° Northwest 177 204 4,000 420 Climbing Cleveland Center
06:59PM 41.7072 -81.8403 320° Northwest 172 198 4,100  Climbing Cleveland Center
07:00PM 41.7461 -81.8828 321° Northwest 172 198 4,100 -60 Level Cleveland Center
07:01PM 41.7811 -81.9225 320° Northwest 172 198 4,000 -120 Descending Cleveland Center
07:02PM 41.8119 -81.9622 316° Northwest 172 198 3,900  Descending Cleveland Center
07:03PM 41.8492 -81.9992 324° Northwest 167 192 4,000 60 Climbing Cleveland Center
07:04PM 41.8819 -82.0444 314° West 167 192 4,100  Climbing Cleveland Center
07:05PM 41.9189 -82.0817 323° Northwest 160 184 4,100 -60 Level Cleveland Center
07:06PM 41.9661 -82.1303 323° Northwest 172 198 4,000 -60 Descending Cleveland Center
07:07PM 41.9931 -82.1561 325° Northwest 160 184 4,000  Level Cleveland Center
07:08PM 42.0278 -82.1989 318° Northwest 165 190 4,000  Level Cleveland Center
07:09PM 42.0628 -82.2389 320° Northwest 160 184 4,100  Climbing Cleveland Center
07:10PM 42.0997 -82.2761 323° Northwest 160 184 4,100 -120 Level Cleveland Center
07:10PM 42.1222 -82.3019 320° Northwest 170 196 4,000  Descending Cleveland Center
07:11PM 42.1325 -82.3164 314° West 160 184 4,100  Climbing Cleveland Center
07:12PM 42.1672 -82.3592 318° Northwest 160 184 4,000  Descending Cleveland Center
07:13PM 42.2000 -82.3967 320° Northwest 160 184 4,100  Climbing Cleveland Center
07:14PM 42.2347 -82.4397 317° Northwest 160 184 4,100 -60 Level Cleveland Center
07:15PM 42.2736 -82.4828 321° Northwest 165 190 4,000 -60 Descending Cleveland Center
07:16PM 42.3042 -82.5203 318° Northwest 160 184 4,000  Level Cleveland Center
07:16PM 42.3247 -82.5378 328° Northwest 163 188 4,000  Level Cleveland Center
07:17PM 42.3617 -82.5811 319° Northwest 167 192 4,000  Level Cleveland Center
07:18PM 42.3983 -82.6244 319° Northwest 167 192 4,000  Level Cleveland Center
07:19PM 42.4308 -82.6647 318° Northwest 164 189 4,000  Level Cleveland Center
07:20PM 42.4656 -82.7083 317° Northwest 164 189 4,000  Level Cleveland Center
07:21PM 42.5022 -82.7575 315° West 162 186 4,000  Level Cleveland Center
07:22PM 42.5389 -82.7953 323° Northwest 165 190 4,000  Level Cleveland Center
07:23PM 42.5694 -82.8331 318° Northwest 165 190 4,000  Level Cleveland Center
07:24PM 42.6042 -82.8736 319° Northwest 162 186 4,000  Level Cleveland Center
07:25PM 42.6367 -82.9172 315° West 163 188 4,100  Climbing Cleveland Center
07:26PM 42.6650 -82.9522 318° Northwest 164 189 4,000 -60 Descending Cleveland Center
07:27PM 42.7039 -82.9961 320° Northwest 164 189 4,000  Level Cleveland Center
07:28PM 42.7364 -83.0369 317° Northwest 160 184 4,000  Level Cleveland Center
07:29PM 42.7708 -83.0806 317° Northwest 163 188 4,000  Level Cleveland Center
07:30PM 42.8011 -83.1158 319° Northwest 164 189 4,000  Level Cleveland Center
07:32PM 42.8490 -83.1779 320° Northwest  Level Estimated
07:39PM 43.0669 -83.4763 315° West  Level FlightAware Approximate
07:40PM 43.0979 -83.5191 315° West  Level FlightAware Approximate
07:41PM 43.1290 -83.5619 315° West  Level FlightAware Approximate
07:42PM 43.1600 -83.6048 315° West  Level FlightAware Approximate
07:43PM 43.1910 -83.6477 315° West  Level FlightAware Approximate
07:44PM 43.2213 -83.6889 319° Northwest  Level FlightAware Approximate
07:45PM 43.2545 -83.7287 319° Northwest  Level FlightAware Approximate
07:46PM 43.2877 -83.7684 319° Northwest  Level FlightAware Approximate
07:47PM 43.3209 -83.8083 319° Northwest  Level FlightAware Approximate
07:48PM 43.3541 -83.8481 319° Northwest  Level FlightAware Approximate
07:49PM 43.3871 -83.8882 317° Northwest  Level FlightAware Approximate
07:50PM 43.4194 -83.9296 317° Northwest  Level FlightAware Approximate
07:51PM 43.4516 -83.9710 317° Northwest  Level FlightAware Approximate
07:52PM 43.4838 -84.0124 317° Northwest  Level FlightAware Approximate
07:53PM 43.5124 -84.0582 305° West  Level FlightAware Approximate
07:54PM 43.5167 -84.0667 305° West  Level FlightAware Approximate
07:55PM 43.5329 -84.0796 305° West  Level Estimated
07:56PM 43.5329 -84.0796 305° West  Level Estimated
07:57PM 43.5329 -84.0796 305° West  Level Estimated
07:58PM 43.5329 -84.0796 305° West  Level Estimated
07:59PM 43.5329 -84.0796 305° West  Level Estimated